sensor_id;sensor_type;location;lat;lon;timestamp;pressure;altitude;pressure_sealevel;temperature;humidity
32761;BME280;19126;47.472;7.850;2023-11-21T00:00:19;96166.81;;;7.81;100.00
32761;BME280;19126;47.472;7.850;2023-11-21T00:02:47;96169.44;;;7.73;100.00
32761;BME280;19126;47.472;7.850;2023-11-21T00:05:15;96171.22;;;7.81;100.00
32761;BME280;19126;47.472;7.850;2023-11-21T00:07:43;96155.72;;;7.71;100.00
32761;BME280;19126;47.472;7.850;2023-11-21T00:10:12;96148.38;;;7.66;100.00
32761;BME280;19126;47.472;7.850;2023-11-21T00:12:42;96154.75;;;7.63;100.00
32761;BME280;19126;47.472;7.850;2023-11-21T00:15:10;96150.69;;;7.61;100.00
32761;BME280;19126;47.472;7.850;2023-11-21T00:17:40;96148.56;;;7.56;100.00
32761;BME280;19126;47.472;7.850;2023-11-21T00:20:09;96145.13;;;7.56;100.00
32761;BME280;19126;47.472;7.850;2023-11-21T00:22:39;96139.78;;;7.49;100.00
32761;BME280;19126;47.472;7.850;2023-11-21T00:25:08;96140.44;;;7.43;100.00
32761;BME280;19126;47.472;7.850;2023-11-21T00:27:36;96149.06;;;7.43;100.00
32761;BME280;19126;47.472;7.850;2023-11-21T00:30:05;96139.78;;;7.41;100.00
32761;BME280;19126;47.472;7.850;2023-11-21T00:32:35;96144.50;;;7.37;100.00
32761;BME280;19126;47.472;7.850;2023-11-21T00:35:06;96138.63;;;7.35;100.00
32761;BME280;19126;47.472;7.850;2023-11-21T00:37:33;96129.50;;;7.31;100.00
32761;BME280;19126;47.472;7.850;2023-11-21T00:40:01;96132.28;;;7.29;100.00
32761;BME280;19126;47.472;7.850;2023-11-21T00:42:31;96128.19;;;7.27;100.00
32761;BME280;19126;47.472;7.850;2023-11-21T00:45:00;96128.03;;;7.28;100.00
32761;BME280;19126;47.472;7.850;2023-11-21T00:47:27;96126.75;;;7.24;100.00
32761;BME280;19126;47.472;7.850;2023-11-21T00:49:55;96115.66;;;7.22;100.00
32761;BME280;19126;47.472;7.850;2023-11-21T00:52:24;96120.03;;;7.22;100.00
32761;BME280;19126;47.472;7.850;2023-11-21T00:54:52;96112.88;;;7.15;100.00
32761;BME280;19126;47.472;7.850;2023-11-21T00:57:20;96115.97;;;7.19;100.00
32761;BME280;19126;47.472;7.850;2023-11-21T00:59:47;96119.38;;;7.19;100.00
32761;BME280;19126;47.472;7.850;2023-11-21T01:02:15;96118.59;;;7.19;100.00
32761;BME280;19126;47.472;7.850;2023-11-21T01:04:43;96111.22;;;7.14;100.00
32761;BME280;19126;47.472;7.850;2023-11-21T01:07:11;96126.44;;;7.19;100.00
32761;BME280;19126;47.472;7.850;2023-11-21T01:09:41;96126.56;;;7.17;100.00
32761;BME280;19126;47.472;7.850;2023-11-21T01:12:10;96124.28;;;7.14;100.00
32761;BME280;19126;47.472;7.850;2023-11-21T01:14:38;96127.56;;;7.16;100.00
32761;BME280;19126;47.472;7.850;2023-11-21T01:17:06;96119.72;;;7.08;100.00
32761;BME280;19126;47.472;7.850;2023-11-21T01:19:34;96117.44;;;7.05;100.00
32761;BME280;19126;47.472;7.850;2023-11-21T01:22:02;96136.38;;;7.07;100.00
32761;BME280;19126;47.472;7.850;2023-11-21T01:24:30;96137.03;;;7.01;100.00
32761;BME280;19126;47.472;7.850;2023-11-21T01:26:59;96139.16;;;6.97;100.00
32761;BME280;19126;47.472;7.850;2023-11-21T01:29:29;96145.53;;;6.95;100.00
32761;BME280;19126;47.472;7.850;2023-11-21T01:31:57;96147.47;;;6.93;100.00
32761;BME280;19126;47.472;7.850;2023-11-21T01:34:24;96140.94;;;6.88;100.00
32761;BME280;19126;47.472;7.850;2023-11-21T01:36:53;96142.75;;;6.88;100.00
32761;BME280;19126;47.472;7.850;2023-11-21T01:39:23;96140.16;;;6.88;100.00
32761;BME280;19126;47.472;7.850;2023-11-21T01:41:52;96140.63;;;6.92;100.00
32761;BME280;19126;47.472;7.850;2023-11-21T01:44:21;96137.69;;;6.86;100.00
32761;BME280;19126;47.472;7.850;2023-11-21T01:46:50;96132.31;;;6.88;98.17
32761;BME280;19126;47.472;7.850;2023-11-21T01:49:18;96121.22;;;6.78;95.21
32761;BME280;19126;47.472;7.850;2023-11-21T01:51:48;96123.66;;;6.87;91.74
32761;BME280;19126;47.472;7.850;2023-11-21T01:54:17;96123.84;;;6.78;92.24
32761;BME280;19126;47.472;7.850;2023-11-21T01:56:47;96126.44;;;6.69;90.67
32761;BME280;19126;47.472;7.850;2023-11-21T01:59:21;96132.31;;;6.71;88.86
32761;BME280;19126;47.472;7.850;2023-11-21T02:01:49;96126.44;;;6.69;87.73
32761;BME280;19126;47.472;7.850;2023-11-21T02:04:18;96123.50;;;6.64;87.34
32761;BME280;19126;47.472;7.850;2023-11-21T02:06:50;96125.28;;;6.64;85.99
32761;BME280;19126;47.472;7.850;2023-11-21T02:09:25;96122.97;;;6.60;85.05
32761;BME280;19126;47.472;7.850;2023-11-21T02:11:53;96126.91;;;6.56;83.77
32761;BME280;19126;47.472;7.850;2023-11-21T02:14:22;96116.28;;;6.58;82.44
32761;BME280;19126;47.472;7.850;2023-11-21T02:16:51;96122.00;;;6.62;81.78
32761;BME280;19126;47.472;7.850;2023-11-21T02:19:21;96122.81;;;6.62;79.95
32761;BME280;19126;47.472;7.850;2023-11-21T02:21:52;96121.50;;;6.58;79.32
32761;BME280;19126;47.472;7.850;2023-11-21T02:24:22;96112.88;;;6.57;78.19
32761;BME280;19126;47.472;7.850;2023-11-21T02:26:51;96107.97;;;6.54;76.14
32761;BME280;19126;47.472;7.850;2023-11-21T02:29:19;96108.78;;;6.55;73.94
32761;BME280;19126;47.472;7.850;2023-11-21T02:31:51;96103.56;;;6.55;72.41
32761;BME280;19126;47.472;7.850;2023-11-21T02:34:22;96105.50;;;6.53;71.49
32761;BME280;19126;47.472;7.850;2023-11-21T02:36:51;96099.16;;;6.47;69.61
32761;BME280;19126;47.472;7.850;2023-11-21T02:39:21;96108.13;;;6.53;68.67
32761;BME280;19126;47.472;7.850;2023-11-21T02:41:50;96091.97;;;6.49;67.06
32761;BME280;19126;47.472;7.850;2023-11-21T02:44:18;96089.38;;;6.49;65.32
32761;BME280;19126;47.472;7.850;2023-11-21T02:46:45;96095.25;;;6.51;64.34
32761;BME280;19126;47.472;7.850;2023-11-21T02:49:13;96091.47;;;6.54;63.37
32761;BME280;19126;47.472;7.850;2023-11-21T02:51:41;96087.41;;;6.51;62.96
32761;BME280;19126;47.472;7.850;2023-11-21T02:54:09;96096.88;;;6.52;62.66
32761;BME280;19126;47.472;7.850;2023-11-21T02:56:39;96098.00;;;6.50;61.57
32761;BME280;19126;47.472;7.850;2023-11-21T02:59:07;96092.63;;;6.51;60.98
32761;BME280;19126;47.472;7.850;2023-11-21T03:01:35;96090.19;;;6.50;59.97
32761;BME280;19126;47.472;7.850;2023-11-21T03:04:06;96096.88;;;6.52;59.26
32761;BME280;19126;47.472;7.850;2023-11-21T03:06:34;96091.34;;;6.47;59.04
32761;BME280;19126;47.472;7.850;2023-11-21T03:09:02;96097.69;;;6.53;58.66
32761;BME280;19126;47.472;7.850;2023-11-21T03:11:30;96097.84;;;6.51;58.29
32761;BME280;19126;47.472;7.850;2023-11-21T03:14:00;96091.97;;;6.49;57.65
32761;BME280;19126;47.472;7.850;2023-11-21T03:16:27;96085.59;;;6.43;56.65
32761;BME280;19126;47.472;7.850;2023-11-21T03:18:55;96092.63;;;6.43;56.55
32761;BME280;19126;47.472;7.850;2023-11-21T03:21:23;96094.59;;;6.41;54.83
32761;BME280;19126;47.472;7.850;2023-11-21T03:23:52;96087.22;;;6.44;54.84
32761;BME280;19126;47.472;7.850;2023-11-21T03:26:20;96097.53;;;6.46;53.42
32761;BME280;19126;47.472;7.850;2023-11-21T03:28:48;96092.13;;;6.56;52.82
32761;BME280;19126;47.472;7.850;2023-11-21T03:31:17;96094.75;;;6.48;52.00
32761;BME280;19126;47.472;7.850;2023-11-21T03:33:45;96092.31;;;6.46;51.96
32761;BME280;19126;47.472;7.850;2023-11-21T03:36:13;96092.94;;;6.40;51.37
32761;BME280;19126;47.472;7.850;2023-11-21T03:38:42;96095.56;;;6.40;50.82
32761;BME280;19126;47.472;7.850;2023-11-21T03:41:10;96106.00;;;6.40;49.51
32761;BME280;19126;47.472;7.850;2023-11-21T03:43:38;96096.03;;;6.35;48.80
32761;BME280;19126;47.472;7.850;2023-11-21T03:46:06;96108.59;;;6.40;48.52
32761;BME280;19126;47.472;7.850;2023-11-21T03:48:36;96105.16;;;6.39;47.62
32761;BME280;19126;47.472;7.850;2023-11-21T03:51:04;96102.72;;;6.38;46.81
32761;BME280;19126;47.472;7.850;2023-11-21T03:53:32;96106.97;;;6.39;46.60
32761;BME280;19126;47.472;7.850;2023-11-21T03:56:03;96113.00;;;6.39;46.10
32761;BME280;19126;47.472;7.850;2023-11-21T03:58:31;96115.78;;;6.38;45.20
32761;BME280;19126;47.472;7.850;2023-11-21T04:00:59;96122.78;;;6.37;44.91
32761;BME280;19126;47.472;7.850;2023-11-21T04:03:27;96113.63;;;6.33;44.01
32761;BME280;19126;47.472;7.850;2023-11-21T04:05:58;96116.91;;;6.43;43.30
32761;BME280;19126;47.472;7.850;2023-11-21T04:08:27;96118.88;;;6.41;44.26
32761;BME280;19126;47.472;7.850;2023-11-21T04:10:55;96120.50;;;6.42;43.30
32761;BME280;19126;47.472;7.850;2023-11-21T04:13:23;96116.56;;;6.38;43.29
32761;BME280;19126;47.472;7.850;2023-11-21T04:15:51;96114.47;;;6.42;42.87
32761;BME280;19126;47.472;7.850;2023-11-21T04:18:21;96120.50;;;6.42;42.85
32761;BME280;19126;47.472;7.850;2023-11-21T04:20:51;96118.72;;;6.35;42.94
32761;BME280;19126;47.472;7.850;2023-11-21T04:23:20;96116.09;;;6.35;42.41
32761;BME280;19126;47.472;7.850;2023-11-21T04:25:48;96116.41;;;6.32;41.86
32761;BME280;19126;47.472;7.850;2023-11-21T04:28:16;96119.16;;;6.30;41.65
32761;BME280;19126;47.472;7.850;2023-11-21T04:30:44;96130.13;;;6.34;41.55
32761;BME280;19126;47.472;7.850;2023-11-21T04:33:12;96123.59;;;6.29;40.78
32761;BME280;19126;47.472;7.850;2023-11-21T04:35:40;96133.69;;;6.33;40.15
32761;BME280;19126;47.472;7.850;2023-11-21T04:38:07;96134.50;;;6.33;40.08
32761;BME280;19126;47.472;7.850;2023-11-21T04:40:36;96133.72;;;6.41;39.12
32761;BME280;19126;47.472;7.850;2023-11-21T04:43:04;96139.91;;;6.40;38.53
32761;BME280;19126;47.472;7.850;2023-11-21T04:45:32;96137.44;;;6.38;39.12
32761;BME280;19126;47.472;7.850;2023-11-21T04:48:00;96132.22;;;6.38;39.00
32761;BME280;19126;47.472;7.850;2023-11-21T04:50:28;96144.31;;;6.39;38.87
32761;BME280;19126;47.472;7.850;2023-11-21T04:52:58;96140.22;;;6.37;38.10
32761;BME280;19126;47.472;7.850;2023-11-21T04:55:26;96134.69;;;6.40;37.47
32761;BME280;19126;47.472;7.850;2023-11-21T04:57:55;96139.25;;;6.38;37.80
32761;BME280;19126;47.472;7.850;2023-11-21T05:00:23;96127.97;;;6.29;37.81
32761;BME280;19126;47.472;7.850;2023-11-21T05:02:51;96138.72;;;6.26;37.59
32761;BME280;19126;47.472;7.850;2023-11-21T05:05:19;96132.84;;;6.24;37.06
32761;BME280;19126;47.472;7.850;2023-11-21T05:07:46;96128.59;;;6.23;36.17
32761;BME280;19126;47.472;7.850;2023-11-21T05:10:15;96136.94;;;6.26;35.67
32761;BME280;19126;47.472;7.850;2023-11-21T05:12:43;96136.28;;;6.24;36.05
32761;BME280;19126;47.472;7.850;2023-11-21T05:15:15;96140.53;;;6.25;34.90
32761;BME280;19126;47.472;7.850;2023-11-21T05:17:44;96143.94;;;6.26;34.76
32761;BME280;19126;47.472;7.850;2023-11-21T05:20:16;96132.19;;;6.22;34.10
32761;BME280;19126;47.472;7.850;2023-11-21T05:22:48;96141.50;;;6.24;34.12
32761;BME280;19126;47.472;7.850;2023-11-21T05:25:17;96143.59;;;6.21;33.36
32761;BME280;19126;47.472;7.850;2023-11-21T05:27:54;96144.13;;;6.24;33.63
32761;BME280;19126;47.472;7.850;2023-11-21T05:30:23;96151.63;;;6.27;33.32
32761;BME280;19126;47.472;7.850;2023-11-21T05:32:50;96147.69;;;6.23;32.98
32761;BME280;19126;47.472;7.850;2023-11-21T05:35:18;96153.88;;;6.22;33.36
32761;BME280;19126;47.472;7.850;2023-11-21T05:37:47;96154.88;;;6.21;32.55
32761;BME280;19126;47.472;7.850;2023-11-21T05:40:15;96145.22;;;6.22;32.57
32761;BME280;19126;47.472;7.850;2023-11-21T05:42:48;96153.75;;;6.32;32.62
32761;BME280;19126;47.472;7.850;2023-11-21T05:45:18;96135.97;;;6.27;32.70
32761;BME280;19126;47.472;7.850;2023-11-21T05:47:47;96149.34;;;6.24;33.44
32761;BME280;19126;47.472;7.850;2023-11-21T05:50:17;96150.75;;;6.19;33.33
32761;BME280;19126;47.472;7.850;2023-11-21T05:52:46;96151.59;;;6.19;33.23
32761;BME280;19126;47.472;7.850;2023-11-21T05:55:15;96147.34;;;6.18;33.26
32761;BME280;19126;47.472;7.850;2023-11-21T05:57:43;96144.88;;;6.16;32.78
32761;BME280;19126;47.472;7.850;2023-11-21T06:00:12;96147.00;;;6.13;32.80
32761;BME280;19126;47.472;7.850;2023-11-21T06:02:45;96145.03;;;6.07;33.50
32761;BME280;19126;47.472;7.850;2023-11-21T06:05:13;96148.94;;;6.03;33.02
32761;BME280;19126;47.472;7.850;2023-11-21T06:07:40;96140.88;;;5.96;33.81
32761;BME280;19126;47.472;7.850;2023-11-21T06:10:10;96142.47;;;5.89;33.51
32761;BME280;19126;47.472;7.850;2023-11-21T06:12:38;96153.56;;;5.91;33.22
32761;BME280;19126;47.472;7.850;2023-11-21T06:15:10;96157.16;;;5.90;33.72
32761;BME280;19126;47.472;7.850;2023-11-21T06:17:40;96163.50;;;5.87;33.56
32761;BME280;19126;47.472;7.850;2023-11-21T06:20:10;96168.84;;;5.85;33.22
32761;BME280;19126;47.472;7.850;2023-11-21T06:22:41;96166.16;;;5.95;32.61
32761;BME280;19126;47.472;7.850;2023-11-21T06:25:10;96178.34;;;5.95;32.87
32761;BME280;19126;47.472;7.850;2023-11-21T06:27:40;96170.38;;;5.96;32.58
32761;BME280;19126;47.472;7.850;2023-11-21T06:30:09;96168.28;;;6.00;32.04
32761;BME280;19126;47.472;7.850;2023-11-21T06:32:38;96175.44;;;5.98;31.37
32761;BME280;19126;47.472;7.850;2023-11-21T06:35:08;96176.41;;;5.97;31.25
32761;BME280;19126;47.472;7.850;2023-11-21T06:37:36;96182.44;;;5.97;30.98
32761;BME280;19126;47.472;7.850;2023-11-21T06:40:05;96179.84;;;5.97;30.64
32761;BME280;19126;47.472;7.850;2023-11-21T06:42:33;96180.66;;;5.98;29.96
32761;BME280;19126;47.472;7.850;2023-11-21T06:45:01;96187.66;;;5.97;29.43
32761;BME280;19126;47.472;7.850;2023-11-21T06:47:30;96181.63;;;5.97;29.36
32761;BME280;19126;47.472;7.850;2023-11-21T06:49:58;96179.84;;;5.97;29.12
32761;BME280;19126;47.472;7.850;2023-11-21T06:52:27;96188.31;;;5.99;28.15
32761;BME280;19126;47.472;7.850;2023-11-21T06:54:55;96187.88;;;6.04;28.24
32761;BME280;19126;47.472;7.850;2023-11-21T06:57:23;96189.81;;;6.02;28.58
32761;BME280;19126;47.472;7.850;2023-11-21T06:59:51;96194.91;;;6.04;27.81
32761;BME280;19126;47.472;7.850;2023-11-21T07:02:18;96185.84;;;5.98;27.26
32761;BME280;19126;47.472;7.850;2023-11-21T07:04:46;96189.13;;;6.00;27.27
32761;BME280;19126;47.472;7.850;2023-11-21T07:07:14;96192.94;;;6.06;26.86
32761;BME280;19126;47.472;7.850;2023-11-21T07:09:43;96196.34;;;6.06;26.85
32761;BME280;19126;47.472;7.850;2023-11-21T07:12:11;96203.72;;;6.11;27.01
32761;BME280;19126;47.472;7.850;2023-11-21T07:14:40;96201.25;;;6.09;26.20
32761;BME280;19126;47.472;7.850;2023-11-21T07:17:11;96214.34;;;6.18;26.37
32761;BME280;19126;47.472;7.850;2023-11-21T07:19:39;96217.59;;;6.20;26.13
32761;BME280;19126;47.472;7.850;2023-11-21T07:22:07;96203.75;;;6.19;25.68
32761;BME280;19126;47.472;7.850;2023-11-21T07:24:35;96200.00;;;6.22;25.99
32761;BME280;19126;47.472;7.850;2023-11-21T07:27:05;96206.53;;;6.26;25.50
32761;BME280;19126;47.472;7.850;2023-11-21T07:29:32;96214.88;;;6.29;25.76
32761;BME280;19126;47.472;7.850;2023-11-21T07:32:00;96215.53;;;6.32;26.18
32761;BME280;19126;47.472;7.850;2023-11-21T07:34:28;96215.53;;;6.32;25.69
32761;BME280;19126;47.472;7.850;2023-11-21T07:36:56;96210.50;;;6.38;25.64
32761;BME280;19126;47.472;7.850;2023-11-21T07:39:24;96210.66;;;6.37;26.25
32761;BME280;19126;47.472;7.850;2023-11-21T07:41:52;96211.00;;;6.42;26.63
32761;BME280;19126;47.472;7.850;2023-11-21T07:44:21;96209.72;;;6.46;26.78
32761;BME280;19126;47.472;7.850;2023-11-21T07:46:49;96213.34;;;6.53;26.87
32761;BME280;19126;47.472;7.850;2023-11-21T07:49:17;96214.47;;;6.59;26.92
32761;BME280;19126;47.472;7.850;2023-11-21T07:51:47;96214.34;;;6.69;26.85
32761;BME280;19126;47.472;7.850;2023-11-21T07:54:16;96209.31;;;6.76;27.46
32761;BME280;19126;47.472;7.850;2023-11-21T07:56:44;96205.88;;;6.83;27.51
32761;BME280;19126;47.472;7.850;2023-11-21T07:59:12;96208.03;;;6.96;27.64
32761;BME280;19126;47.472;7.850;2023-11-21T08:01:42;96209.03;;;6.95;27.99
32761;BME280;19126;47.472;7.850;2023-11-21T08:04:09;96204.78;;;7.11;27.88
32761;BME280;19126;47.472;7.850;2023-11-21T08:06:37;96202.97;;;7.03;30.21
32761;BME280;19126;47.472;7.850;2023-11-21T08:09:05;96201.34;;;7.10;31.46
32761;BME280;19126;47.472;7.850;2023-11-21T08:11:34;96212.78;;;7.09;32.77
32761;BME280;19126;47.472;7.850;2023-11-21T08:14:02;96214.59;;;7.09;34.06
32761;BME280;19126;47.472;7.850;2023-11-21T08:16:30;96209.38;;;7.09;34.95
32761;BME280;19126;47.472;7.850;2023-11-21T08:18:59;96213.44;;;7.11;35.47
32761;BME280;19126;47.472;7.850;2023-11-21T08:21:27;96226.34;;;7.13;37.32
32761;BME280;19126;47.472;7.850;2023-11-21T08:23:57;96223.41;;;7.08;37.82
32761;BME280;19126;47.472;7.850;2023-11-21T08:26:26;96226.00;;;7.08;38.85
32761;BME280;19126;47.472;7.850;2023-11-21T08:28:54;96230.91;;;7.11;38.83
32761;BME280;19126;47.472;7.850;2023-11-21T08:31:26;96231.72;;;7.11;39.37
32761;BME280;19126;47.472;7.850;2023-11-21T08:33:54;96233.53;;;7.11;40.09
32761;BME280;19126;47.472;7.850;2023-11-21T08:36:23;96233.19;;;7.06;40.47
32761;BME280;19126;47.472;7.850;2023-11-21T08:38:51;96232.03;;;7.00;39.33
32761;BME280;19126;47.472;7.850;2023-11-21T08:41:19;96232.84;;;7.00;38.58
32761;BME280;19126;47.472;7.850;2023-11-21T08:43:49;96237.75;;;7.03;39.63
32761;BME280;19126;47.472;7.850;2023-11-21T08:46:17;96238.41;;;7.06;39.53
32761;BME280;19126;47.472;7.850;2023-11-21T08:48:45;96250.31;;;7.08;39.99
32761;BME280;19126;47.472;7.850;2023-11-21T08:51:13;96253.13;;;7.15;38.70
32761;BME280;19126;47.472;7.850;2023-11-21T08:53:43;96262.09;;;7.21;38.11
32761;BME280;19126;47.472;7.850;2023-11-21T08:56:13;96256.06;;;7.20;38.71
32761;BME280;19126;47.472;7.850;2023-11-21T08:58:41;96252.94;;;7.25;38.83
32761;BME280;19126;47.472;7.850;2023-11-21T09:01:09;96249.53;;;7.24;39.05
32761;BME280;19126;47.472;7.850;2023-11-21T09:03:38;96240.53;;;7.27;38.67
32761;BME280;19126;47.472;7.850;2023-11-21T09:06:07;96251.00;;;7.27;39.72
32761;BME280;19126;47.472;7.850;2023-11-21T09:08:36;96253.28;;;7.30;40.00
32761;BME280;19126;47.472;7.850;2023-11-21T09:11:05;96260.63;;;7.35;41.24
32761;BME280;19126;47.472;7.850;2023-11-21T09:13:34;96253.78;;;7.33;41.73
32761;BME280;19126;47.472;7.850;2023-11-21T09:16:03;96263.41;;;7.33;42.94
32761;BME280;19126;47.472;7.850;2023-11-21T09:18:32;96262.59;;;7.32;44.59
32761;BME280;19126;47.472;7.850;2023-11-21T09:21:00;96265.88;;;7.35;46.05
32761;BME280;19126;47.472;7.850;2023-11-21T09:23:27;96269.47;;;7.42;46.06
32761;BME280;19126;47.472;7.850;2023-11-21T09:25:55;96275.50;;;7.51;45.42
32761;BME280;19126;47.472;7.850;2023-11-21T09:28:24;96270.59;;;7.64;44.89
32761;BME280;19126;47.472;7.850;2023-11-21T09:30:53;96277.78;;;7.78;44.19
32761;BME280;19126;47.472;7.850;2023-11-21T09:33:21;96277.28;;;7.83;45.61
32761;BME280;19126;47.472;7.850;2023-11-21T09:35:51;96276.13;;;7.86;48.34
32761;BME280;19126;47.472;7.850;2023-11-21T09:38:19;96278.91;;;7.92;49.42
32761;BME280;19126;47.472;7.850;2023-11-21T09:40:45;96283.97;;;7.94;53.91
32761;BME280;19126;47.472;7.850;2023-11-21T09:43:17;96289.69;;;7.89;60.73
32761;BME280;19126;47.472;7.850;2023-11-21T09:45:50;96282.34;;;7.85;65.66
32761;BME280;19126;47.472;7.850;2023-11-21T09:48:24;96285.44;;;7.88;68.94
32761;BME280;19126;47.472;7.850;2023-11-21T09:50:54;96280.53;;;7.94;71.81
32761;BME280;19126;47.472;7.850;2023-11-21T09:53:22;96281.69;;;7.99;74.17
32761;BME280;19126;47.472;7.850;2023-11-21T09:55:52;96281.66;;;8.16;75.68
32761;BME280;19126;47.472;7.850;2023-11-21T09:58:20;96279.81;;;8.25;76.27
32761;BME280;19126;47.472;7.850;2023-11-21T10:00:56;96280.78;;;8.32;78.62
32761;BME280;19126;47.472;7.850;2023-11-21T10:03:24;96279.44;;;8.44;81.57
32761;BME280;19126;47.472;7.850;2023-11-21T10:05:54;96279.94;;;8.56;89.36
32761;BME280;19126;47.472;7.850;2023-11-21T10:08:26;96276.44;;;8.64;97.62
32761;BME280;19126;47.472;7.850;2023-11-21T10:10:55;96276.06;;;8.75;100.00
32761;BME280;19126;47.472;7.850;2023-11-21T10:13:23;96280.47;;;8.83;100.00
32761;BME280;19126;47.472;7.850;2023-11-21T10:15:58;96276.63;;;8.94;100.00
32761;BME280;19126;47.472;7.850;2023-11-21T10:18:33;96270.88;;;8.99;100.00
32761;BME280;19126;47.472;7.850;2023-11-21T10:21:01;96265.59;;;9.07;100.00
32761;BME280;19126;47.472;7.850;2023-11-21T10:23:31;96273.22;;;9.17;100.00
32761;BME280;19126;47.472;7.850;2023-11-21T10:26:00;96275.13;;;9.23;100.00
32761;BME280;19126;47.472;7.850;2023-11-21T10:28:28;96263.72;;;9.16;100.00
32761;BME280;19126;47.472;7.850;2023-11-21T10:30:59;96268.50;;;9.12;100.00
32761;BME280;19126;47.472;7.850;2023-11-21T10:33:30;96261.53;;;8.96;100.00
32761;BME280;19126;47.472;7.850;2023-11-21T10:35:58;96267.31;;;8.91;100.00
32761;BME280;19126;47.472;7.850;2023-11-21T10:38:27;96265.88;;;8.80;100.00
32761;BME280;19126;47.472;7.850;2023-11-21T10:40:56;96269.22;;;8.66;100.00
32761;BME280;19126;47.472;7.850;2023-11-21T10:43:26;96276.97;;;8.59;100.00
32761;BME280;19126;47.472;7.850;2023-11-21T10:45:59;96279.63;;;8.51;100.00
32761;BME280;19126;47.472;7.850;2023-11-21T10:48:32;96270.28;;;8.40;100.00
32761;BME280;19126;47.472;7.850;2023-11-21T10:51:07;96281.25;;;8.44;100.00
32761;BME280;19126;47.472;7.850;2023-11-21T10:53:39;96290.41;;;8.48;100.00
32761;BME280;19126;47.472;7.850;2023-11-21T10:56:09;96283.22;;;8.50;100.00
32761;BME280;19126;47.472;7.850;2023-11-21T10:58:44;96283.38;;;8.40;100.00
32761;BME280;19126;47.472;7.850;2023-11-21T11:01:15;96290.88;;;8.43;100.00
32761;BME280;19126;47.472;7.850;2023-11-21T11:03:51;96292.72;;;8.51;100.00
32761;BME280;19126;47.472;7.850;2023-11-21T11:06:22;96288.47;;;8.50;100.00
32761;BME280;19126;47.472;7.850;2023-11-21T11:08:53;96289.25;;;8.50;100.00
32761;BME280;19126;47.472;7.850;2023-11-21T11:11:21;96294.34;;;8.52;100.00
32761;BME280;19126;47.472;7.850;2023-11-21T11:13:52;96289.56;;;8.47;100.00
32761;BME280;19126;47.472;7.850;2023-11-21T11:16:22;96289.56;;;8.47;100.00
32761;BME280;19126;47.472;7.850;2023-11-21T11:18:51;96288.59;;;8.48;100.00
32761;BME280;19126;47.472;7.850;2023-11-21T11:21:33;96281.59;;;8.41;100.00
32761;BME280;19126;47.472;7.850;2023-11-21T11:24:46;96282.41;;;8.33;100.00
32761;BME280;19126;47.472;7.850;2023-11-21T11:27:28;96291.25;;;8.32;100.00
32761;BME280;19126;47.472;7.850;2023-11-21T11:30:17;96294.38;;;8.27;100.00
32761;BME280;19126;47.472;7.850;2023-11-21T11:32:58;96291.28;;;8.24;100.00
32761;BME280;19126;47.472;7.850;2023-11-21T11:35:37;96294.41;;;8.19;100.00
32761;BME280;19126;47.472;7.850;2023-11-21T11:38:08;96297.84;;;8.11;100.00
32761;BME280;19126;47.472;7.850;2023-11-21T11:40:40;96278.56;;;8.04;100.00
32761;BME280;19126;47.472;7.850;2023-11-21T11:43:08;96289.19;;;8.11;100.00
32761;BME280;19126;47.472;7.850;2023-11-21T11:45:36;96288.34;;;8.10;100.00
32761;BME280;19126;47.472;7.850;2023-11-21T11:48:11;96285.25;;;8.15;100.00
32761;BME280;19126;47.472;7.850;2023-11-21T11:51:03;96291.47;;;8.22;100.00
32761;BME280;19126;47.472;7.850;2023-11-21T11:53:39;96292.75;;;8.26;100.00
32761;BME280;19126;47.472;7.850;2023-11-21T11:56:27;96289.50;;;8.24;100.00
32761;BME280;19126;47.472;7.850;2023-11-21T11:58:58;96291.28;;;8.24;100.00
32761;BME280;19126;47.472;7.850;2023-11-21T12:01:29;96292.13;;;8.16;100.00
32761;BME280;19126;47.472;7.850;2023-11-21T12:04:26;96298.00;;;8.18;100.00
32761;BME280;19126;47.472;7.850;2023-11-21T12:07:01;96295.53;;;8.16;100.00
32761;BME280;19126;47.472;7.850;2023-11-21T12:09:32;96295.06;;;8.13;100.00
32761;BME280;19126;47.472;7.850;2023-11-21T12:12:00;96304.25;;;8.09;100.00
32761;BME280;19126;47.472;7.850;2023-11-21T12:14:27;96304.25;;;8.09;100.00
32761;BME280;19126;47.472;7.850;2023-11-21T12:16:58;96310.78;;;8.04;100.00
32761;BME280;19126;47.472;7.850;2023-11-21T12:19:27;96312.72;;;7.94;100.00
32761;BME280;19126;47.472;7.850;2023-11-21T12:21:55;96311.94;;;7.85;100.00
32761;BME280;19126;47.472;7.850;2023-11-21T12:24:23;96313.41;;;7.80;100.00
32761;BME280;19126;47.472;7.850;2023-11-21T12:26:50;96311.28;;;7.75;100.00
32761;BME280;19126;47.472;7.850;2023-11-21T12:29:19;96315.03;;;7.81;100.00
32761;BME280;19126;47.472;7.850;2023-11-21T12:31:49;96311.75;;;7.78;100.00
32761;BME280;19126;47.472;7.850;2023-11-21T12:34:17;96319.13;;;7.83;100.00
32761;BME280;19126;47.472;7.850;2023-11-21T12:36:46;96313.25;;;7.81;100.00
32761;BME280;19126;47.472;7.850;2023-11-21T12:39:15;96317.81;;;7.87;100.00
32761;BME280;19126;47.472;7.850;2023-11-21T12:41:43;96315.34;;;7.94;100.00
32761;BME280;19126;47.472;7.850;2023-11-21T12:44:13;96312.72;;;7.94;100.00
32761;BME280;19126;47.472;7.850;2023-11-21T12:46:43;96312.59;;;7.87;100.00
32761;BME280;19126;47.472;7.850;2023-11-21T12:49:13;96315.53;;;7.92;100.00
32761;BME280;19126;47.472;7.850;2023-11-21T12:51:45;96326.50;;;7.96;100.00
32761;BME280;19126;47.472;7.850;2023-11-21T12:54:13;96312.25;;;7.90;100.00
32761;BME280;19126;47.472;7.850;2023-11-21T12:56:44;96316.00;;;7.88;100.00
32761;BME280;19126;47.472;7.850;2023-11-21T12:59:13;96317.97;;;7.94;100.00
32761;BME280;19126;47.472;7.850;2023-11-21T13:01:42;96317.16;;;7.94;100.00
32761;BME280;19126;47.472;7.850;2023-11-21T13:04:10;96317.16;;;7.94;100.00
32761;BME280;19126;47.472;7.850;2023-11-21T13:06:38;96321.91;;;7.98;100.00
32761;BME280;19126;47.472;7.850;2023-11-21T13:09:09;96320.09;;;8.07;100.00
32761;BME280;19126;47.472;7.850;2023-11-21T13:11:39;96325.63;;;8.12;100.00
32761;BME280;19126;47.472;7.850;2023-11-21T13:14:11;96315.66;;;8.16;100.00
32761;BME280;19126;47.472;7.850;2023-11-21T13:16:40;96319.91;;;8.17;100.00
32761;BME280;19126;47.472;7.850;2023-11-21T13:19:12;96319.09;;;8.16;100.00